Time;durP1;ratioP1;P1;durP2;ratioP2;P2;SDS_P1;SDS_P2;PMS_P1;PMS_P2;Temp;Humidity;BMP_temperature;BMP_pressure;BME280_temperature;BME280_humidity;BME280_pressure;Samples;Min_cycle;Max_cycle;Signal;HPM_P1;HPM_P2
2022/10/15 00:01:32;;;;;;;10.85;5.70;;;6.50;97.70;;;6.53;100.00;99660.97;5006221;28;129223;-74
2022/10/15 00:04:01;;;;;;;14.52;5.63;;;6.40;97.20;;;6.47;100.00;99660.19;5006226;28;119031;-74
2022/10/15 00:06:30;;;;;;;10.48;6.10;;;6.30;98.60;;;6.44;100.00;99663.44;5002982;28;119467;-75
2022/10/15 00:08:58;;;;;;;11.45;6.32;;;6.20;99.90;;;6.39;100.00;99660.78;5004639;28;129437;-74
2022/10/15 00:11:29;;;;;;;13.68;6.45;;;6.10;99.90;;;6.34;100.00;99658.09;5020662;28;130660;-74
2022/10/15 00:14:00;;;;;;;9.93;6.32;;;6.00;99.90;;;6.29;100.00;99652.75;5020980;28;119718;-74
2022/10/15 00:16:29;;;;;;;16.25;7.05;;;6.00;99.90;;;6.23;100.00;99653.84;5020854;28;119243;-75
2022/10/15 00:18:59;;;;;;;11.57;6.45;;;5.90;99.90;;;6.19;100.00;99652.81;5002566;28;129495;-75
2022/10/15 00:21:28;;;;;;;11.68;7.03;;;5.90;99.90;;;6.13;100.00;99643.94;5005640;28;128495;-75
2022/10/15 00:23:57;;;;;;;13.02;6.72;;;5.90;99.90;;;6.10;100.00;99648.00;5002842;28;119856;-75
2022/10/15 00:26:28;;;;;;;12.73;6.80;;;5.80;99.90;;;6.05;100.00;99645.34;5006201;28;119444;-74
2022/10/15 00:29:01;;;;;;;11.73;6.65;;;5.80;99.90;;;6.06;100.00;99655.03;5005911;28;128640;-75
2022/10/15 00:31:31;;;;;;;13.98;6.95;;;5.90;99.90;;;6.04;100.00;99654.50;4988651;28;128833;-75
2022/10/15 00:34:02;;;;;;;11.82;7.00;;;5.80;99.90;;;6.01;100.00;99648.88;5019547;28;121858;-75
2022/10/15 00:36:34;;;;;;;14.57;6.97;;;5.80;99.90;;;5.97;100.00;99656.69;5002134;28;121570;-75
2022/10/15 00:39:04;;;;;;;15.93;6.25;;;5.80;99.90;;;5.93;100.00;99652.91;5020124;28;129558;-77
2022/10/15 00:41:35;;;;;;;15.75;7.53;;;5.70;99.90;;;5.89;100.00;99644.59;5002124;28;129498;-75
2022/10/15 00:44:49;;;;;;;12.55;6.53;;;5.70;99.90;;;5.84;100.00;99651.88;4988897;28;118916;-76
2022/10/15 00:47:25;;;;;;;12.57;6.95;;;5.70;99.90;;;5.83;100.00;99652.94;4991986;28;119750;-75
2022/10/15 00:50:01;;;;;;;14.15;6.75;;;5.70;99.90;;;5.77;100.00;99644.09;4992991;28;130126;-75
2022/10/15 00:52:45;;;;;;;10.45;6.63;;;5.70;99.90;;;5.76;100.00;99640.59;5000270;28;129414;-75
2022/10/15 00:55:22;;;;;;;11.55;6.55;;;5.60;99.90;;;5.75;100.00;99641.69;4982513;28;119638;-75
2022/10/15 00:57:51;;;;;;;13.98;7.20;;;5.60;99.90;;;5.73;100.00;99637.66;4985380;28;118003;-75
2022/10/15 01:00:21;;;;;;;16.10;6.88;;;5.60;99.90;;;5.71;100.00;99653.28;4998453;28;129826;-76
2022/10/15 01:02:50;;;;;;;13.00;7.15;;;5.60;99.90;;;5.70;100.00;99646.28;4999091;28;130020;-75
2022/10/15 01:05:19;;;;;;;11.60;7.20;;;5.60;99.90;;;5.68;100.00;99651.94;4999716;28;119547;-75
2022/10/15 01:07:47;;;;;;;13.60;7.82;;;5.60;99.90;;;5.67;100.00;99644.94;4968970;28;118282;-75
2022/10/15 01:10:20;;;;;;;17.33;7.30;;;5.60;99.90;;;5.68;100.00;99645.75;4999534;28;129909;-75
2022/10/15 01:13:07;;;;;;;14.27;7.22;;;5.50;99.90;;;5.63;100.00;99646.56;4984948;28;128365;-75
2022/10/15 01:15:47;;;;;;;13.82;8.02;;;5.50;99.90;;;5.57;100.00;99647.66;4981721;28;119778;-76
2022/10/15 01:18:21;;;;;;;11.82;6.88;;;5.40;99.90;;;5.58;100.00;99641.22;4984875;28;119242;-75
2022/10/15 01:21:13;;;;;;;13.63;7.05;;;5.50;99.90;;;5.52;100.00;99653.88;4981572;28;129861;-75
2022/10/15 01:24:17;;;;;;;16.60;8.13;;;5.40;99.90;;;5.48;100.00;99646.63;4984777;28;129575;-75
2022/10/15 01:27:25;;;;;;;13.50;7.90;;;5.40;99.90;;;5.48;100.00;99649.31;4979954;28;122335;-75
2022/10/15 01:30:21;;;;;;;12.73;7.25;;;5.40;99.90;;;5.44;100.00;99648.22;4999688;28;122498;-75
2022/10/15 01:33:35;;;;;;;13.55;7.93;;;5.40;99.90;;;5.36;100.00;99645.03;4984784;28;129618;-74
2022/10/15 01:36:18;;;;;;;10.80;7.53;;;5.30;99.90;;;5.33;100.00;99645.59;4998031;28;129931;-75
2022/10/15 01:38:57;;;;;;;15.95;7.85;;;5.30;99.90;;;5.33;100.00;99645.59;4984935;28;119667;-75
2022/10/15 01:41:37;;;;;;;17.40;8.52;;;5.30;99.90;;;5.34;100.00;99643.69;4981542;28;119534;-75
2022/10/15 01:44:12;;;;;;;15.25;8.23;;;5.30;99.90;;;5.30;100.00;99651.50;4984642;28;129600;-75
2022/10/15 01:47:21;;;;;;;14.85;8.43;;;5.20;99.90;;;5.29;100.00;99649.09;5001698;28;129058;-75
2022/10/15 01:49:53;;;;;;;13.57;7.85;;;5.20;99.90;;;5.27;100.00;99640.50;4988344;28;118965;-77
2022/10/15 01:52:26;;;;;;;13.27;8.43;;;5.20;99.90;;;5.26;100.00;99644.25;4988410;28;118408;-76
2022/10/15 01:54:55;;;;;;;15.77;8.43;;;5.20;99.90;;;5.23;100.00;99637.53;5018249;28;129920;-76
2022/10/15 01:57:27;;;;;;;16.75;8.90;;;5.10;99.90;;;5.19;100.00;99639.16;4987355;28;129109;-76
2022/10/15 01:59:56;;;;;;;12.50;8.20;;;5.10;99.90;;;5.19;100.00;99631.09;4988020;28;118478;-74
2022/10/15 02:02:26;;;;;;;15.63;8.40;;;5.10;99.90;;;5.15;100.00;99636.19;5019752;28;119309;-74
2022/10/15 02:04:55;;;;;;;16.75;8.35;;;5.10;99.90;;;5.10;100.00;99632.72;4988426;28;130283;-76
2022/10/15 02:07:37;;;;;;;16.05;8.10;;;5.10;99.90;;;5.10;100.00;99630.03;5018004;28;129711;-75
2022/10/15 02:10:14;;;;;;;14.70;8.18;;;5.10;99.90;;;5.09;100.00;99628.41;5004428;28;119308;-76
2022/10/15 02:12:48;;;;;;;;;;;5.00;99.90;;;5.00;100.00;99628.97;5020090;28;119838;-74
2022/10/15 02:15:25;;;;;;;18.60;8.85;;;5.00;99.90;;;5.06;100.00;99628.94;5005598;28;129481;-75
2022/10/15 02:18:02;;;;;;;15.75;8.70;;;4.90;99.90;;;5.04;100.00;99632.72;5004334;28;129434;-74
2022/10/15 02:20:40;;;;;;;19.77;8.55;;;4.90;99.90;;;5.01;100.00;99633.25;5006580;28;121228;-74
2022/10/15 02:23:17;;;;;;;15.63;8.48;;;4.90;99.90;;;4.97;100.00;99637.59;5004547;28;121632;-74
2022/10/15 02:25:47;;;;;;;16.52;9.00;;;4.80;99.90;;;4.98;100.00;99628.41;5004235;28;129714;-74
2022/10/15 02:28:18;;;;;;;14.60;8.48;;;4.80;99.90;;;4.97;100.00;99626.81;5022134;28;129718;-74
2022/10/15 02:30:52;;;;;;;14.45;8.65;;;4.80;99.90;;;4.97;100.00;99632.19;5022513;28;120784;-74
2022/10/15 02:33:23;;;;;;;18.88;8.32;;;4.90;99.90;;;4.98;100.00;99627.63;5004638;28;119280;-74
2022/10/15 02:35:52;;;;;;;16.77;9.02;;;4.80;99.90;;;4.94;100.00;99621.16;5004054;28;130184;-75
2022/10/15 02:38:25;;;;;;;16.10;9.00;;;4.80;99.90;;;4.92;100.00;99624.13;5022941;28;131200;-74
2022/10/15 02:40:54;;;;;;;18.65;9.13;;;4.80;99.90;;;4.91;100.00;99622.53;4990794;28;118645;-74
2022/10/15 02:43:23;;;;;;;14.43;8.63;;;4.80;99.90;;;4.88;100.00;99623.06;5004205;28;119703;-74
2022/10/15 02:45:52;;;;;;;15.73;9.27;;;4.80;99.90;;;4.87;100.00;99621.44;5005543;28;129183;-74
2022/10/15 02:48:25;;;;;;;15.18;9.45;;;4.70;99.90;;;4.85;100.00;99628.97;5003885;28;130226;-74
2022/10/15 02:50:53;;;;;;;15.48;9.50;;;4.70;99.90;;;4.81;100.00;99627.91;4990921;28;118914;-73
2022/10/15 02:53:22;;;;;;;15.23;8.65;;;4.70;99.90;;;4.80;100.00;99624.41;5005245;28;119940;-74
2022/10/15 02:55:50;;;;;;;18.15;8.77;;;4.70;99.90;;;4.81;100.00;99627.91;5004201;28;129918;-74
2022/10/15 02:58:20;;;;;;;16.38;8.40;;;4.70;99.90;;;4.84;100.00;99621.97;5007144;28;128983;-75
2022/10/15 03:00:49;;;;;;;15.35;9.07;;;4.70;99.90;;;4.82;100.00;99629.53;5004628;28;119598;-75
2022/10/15 03:03:17;;;;;;;15.30;9.23;;;4.70;99.90;;;4.80;100.00;99620.91;5007640;28;119542;-76
2022/10/15 03:05:48;;;;;;;14.68;8.77;;;4.70;99.90;;;4.79;100.00;99617.41;5006953;28;128671;-74
2022/10/15 03:08:17;;;;;;;13.70;9.38;;;4.60;99.90;;;4.77;100.00;99614.19;5007030;28;129173;-75
2022/10/15 03:10:46;;;;;;;21.40;9.80;;;4.70;99.90;;;4.74;100.00;99612.06;5002902;28;121667;-74
2022/10/15 03:13:15;;;;;;;21.17;10.02;;;4.60;99.90;;;4.76;100.00;99614.47;5004188;28;121777;-75
2022/10/15 03:15:49;;;;;;;16.40;9.65;;;4.60;99.90;;;4.71;100.00;99617.16;5007007;28;129392;-75
2022/10/15 03:18:18;;;;;;;19.38;9.23;;;4.60;99.90;;;4.71;100.00;99627.91;5003499;28;129653;-74
2022/10/15 03:20:55;;;;;;;18.35;9.02;;;4.60;99.90;;;4.68;100.00;99618.50;5003915;28;119482;-75
2022/10/15 03:23:24;;;;;;;14.93;8.73;;;4.60;99.90;;;4.65;100.00;99619.84;5006710;28;118957;-75
2022/10/15 03:26:01;;;;;;;17.48;9.30;;;4.60;99.90;;;4.66;100.00;99616.09;5002869;28;130099;-76
2022/10/15 03:28:30;;;;;;;21.00;10.18;;;4.60;99.90;;;4.65;100.00;99627.09;5006068;28;129886;-74
2022/10/15 03:30:59;;;;;;;14.75;9.48;;;4.60;99.90;;;4.63;100.00;99627.38;5004056;28;119468;-75
2022/10/15 03:33:28;;;;;;;14.63;8.68;;;4.60;99.90;;;4.62;100.00;99623.06;5007249;28;119052;-74
2022/10/15 03:35:59;;;;;;;16.23;9.70;;;4.60;99.90;;;4.62;100.00;99628.44;5002090;28;130507;-75
2022/10/15 03:38:27;;;;;;;14.43;8.95;;;4.60;99.90;;;4.62;100.00;99625.75;5023150;28;129408;-75
2022/10/15 03:40:56;;;;;;;16.65;8.45;;;4.60;99.90;;;4.59;100.00;99631.66;4990151;28;118902;-74
2022/10/15 03:43:34;;;;;;;18.63;9.35;;;4.50;99.90;;;4.58;100.00;99621.19;4989736;28;119192;-74
2022/10/15 03:46:06;;;;;;;16.95;9.35;;;4.50;99.90;;;4.59;100.00;99615.53;4988923;28;130392;-75
2022/10/15 03:48:39;;;;;;;21.05;9.10;;;4.60;99.90;;;4.57;100.00;99612.31;5019499;28;130203;-74
2022/10/15 03:51:09;;;;;;;16.88;10.05;;;4.50;99.90;;;4.57;100.00;99617.69;4989977;28;118854;-75
2022/10/15 03:53:38;;;;;;;14.93;9.75;;;4.60;99.90;;;4.56;100.00;99616.06;4990095;28;118853;-74
2022/10/15 03:56:08;;;;;;;18.20;9.82;;;4.60;99.90;;;4.58;100.00;99618.50;4989533;28;128871;-74
2022/10/15 03:58:40;;;;;;;17.77;9.45;;;4.60;99.90;;;4.58;100.00;99613.94;4990247;28;129490;-75
2022/10/15 04:01:17;;;;;;;15.75;9.02;;;4.60;99.90;;;4.56;100.00;99604.53;4985336;28;121497;-75
2022/10/15 04:03:46;;;;;;;14.88;9.73;;;4.60;99.90;;;4.57;100.00;99606.94;4999763;28;121818;-74
2022/10/15 04:06:19;;;;;;;16.23;10.15;;;4.50;99.90;;;4.59;100.00;99618.22;4982969;28;129827;-76
2022/10/15 04:08:48;;;;;;;21.55;9.82;;;4.60;99.90;;;4.60;100.00;99611.78;4969230;28;129628;-75
2022/10/15 04:11:23;;;;;;;16.35;9.90;;;4.60;99.90;;;4.57;100.00;99616.91;4986482;28;118783;-75
2022/10/15 04:14:02;;;;;;;18.08;10.48;;;4.60;99.90;;;4.57;100.00;99612.31;4986269;28;119247;-76
2022/10/15 04:16:32;;;;;;;19.05;10.27;;;4.60;99.90;;;4.55;100.00;99610.97;4985675;28;129150;-76
2022/10/15 04:19:02;;;;;;;18.02;10.25;;;4.60;99.90;;;4.58;100.00;99611.25;4985548;28;129302;-77
2022/10/15 04:21:32;;;;;;;18.02;9.98;;;4.70;99.90;;;4.55;100.00;99598.34;4969057;28;118243;-74
2022/10/15 04:24:04;;;;;;;18.75;10.30;;;4.70;99.90;;;4.55;100.00;99609.09;4985830;28;119142;-75
2022/10/15 04:26:39;;;;;;;21.20;9.70;;;4.60;99.90;;;4.54;100.00;99601.31;4967514;28;129401;-75
2022/10/15 04:29:07;;;;;;;16.65;10.05;;;4.50;99.90;;;4.53;100.00;99605.06;4982457;28;129374;-74
2022/10/15 04:31:37;;;;;;;20.58;10.85;;;4.60;99.90;;;4.53;100.00;99600.47;4981117;28;119053;-76
2022/10/15 04:34:06;;;;;;;26.73;11.57;;;4.50;99.90;;;4.51;100.00;99605.31;4985988;28;119339;-76
2022/10/15 04:36:36;;;;;;;19.95;10.73;;;4.50;99.90;;;4.50;100.00;99601.00;4982190;28;130965;-75
2022/10/15 04:39:14;;;;;;;17.13;9.90;;;4.60;99.90;;;4.51;100.00;99597.25;5002197;28;129195;-77
2022/10/15 04:41:44;;;;;;;16.63;9.45;;;4.60;99.90;;;4.54;100.00;99612.84;4969576;28;118512;-76
2022/10/15 04:44:23;;;;;;;19.33;10.80;;;4.60;99.90;;;4.58;100.00;99610.44;4986107;28;119815;-75
2022/10/15 04:46:57;;;;;;;18.55;10.25;;;4.60;99.90;;;4.57;100.00;99611.53;4983640;28;129852;-76
2022/10/15 04:49:43;;;;;;;17.45;9.80;;;4.60;99.90;;;4.58;100.00;99613.94;4968810;28;128990;-76
2022/10/15 04:52:29;;;;;;;17.63;10.07;;;4.60;99.90;;;4.60;100.00;99606.41;4999096;28;122489;-75
2022/10/15 04:55:01;;;;;;;18.67;10.63;;;4.60;99.90;;;4.64;100.00;99617.41;4985892;28;121598;-76
2022/10/15 04:57:30;;;;;;;17.58;9.60;;;4.60;99.90;;;4.65;100.00;99619.03;4969153;28;128992;-76
2022/10/15 04:59:59;;;;;;;16.15;9.65;;;4.60;99.90;;;4.71;100.00;99617.16;4968946;28;128652;-75
2022/10/15 05:02:50;;;;;;;20.58;10.18;;;4.60;99.90;;;4.75;100.00;99612.84;4989248;28;119047;-76
2022/10/15 05:05:24;;;;;;;17.33;10.25;;;4.70;99.90;;;4.79;100.00;99613.94;4985456;28;118382;-75
2022/10/15 05:08:02;;;;;;;16.55;9.68;;;4.70;99.90;;;4.84;100.00;99612.03;4985308;28;129717;-76
2022/10/15 05:10:33;;;;;;;19.25;9.27;;;4.70;99.90;;;4.92;100.00;99613.34;4982427;28;130026;-74
2022/10/15 05:13:06;;;;;;;19.98;9.80;;;4.80;99.90;;;4.94;100.00;99605.03;4998662;28;119618;-75
2022/10/15 05:15:38;;;;;;;20.83;10.18;;;4.80;99.90;;;5.01;100.00;99617.13;4985062;28;118270;-73
2022/10/15 05:18:10;;;;;;;17.35;9.43;;;4.90;99.90;;;5.08;100.00;99610.66;4984102;28;129207;-75
2022/10/15 05:20:47;;;;;;;17.80;8.75;;;5.00;99.90;;;5.15;100.00;99611.19;4985362;28;128246;-74
2022/10/15 05:23:20;;;;;;;17.38;9.57;;;5.00;99.90;;;5.24;100.00;99614.13;4985316;28;119688;-75
2022/10/15 05:26:01;;;;;;;20.23;10.23;;;5.10;99.90;;;5.29;100.00;99620.28;4985248;28;118282;-75
2022/10/15 05:28:30;;;;;;;15.93;9.57;;;5.10;99.90;;;5.37;100.00;99608.97;4968556;28;129008;-75
2022/10/15 05:31:05;;;;;;;14.63;9.50;;;5.10;99.90;;;5.43;100.00;99607.06;4999648;28;130327;-74
2022/10/15 05:33:34;;;;;;;13.35;9.27;;;5.20;99.90;;;5.49;100.00;99608.66;4982114;28;119607;-75
2022/10/15 05:36:11;;;;;;;14.93;8.70;;;5.30;99.90;;;5.62;100.00;99609.94;4985677;28;118872;-75
2022/10/15 05:38:41;;;;;;;17.45;9.23;;;5.40;99.90;;;5.68;100.00;99614.22;4968286;28;128971;-74
2022/10/15 05:41:10;;;;;;;15.63;9.07;;;5.40;99.90;;;5.71;100.00;99613.69;4968464;28;128381;-75
2022/10/15 05:43:39;;;;;;;14.60;8.25;;;5.50;99.90;;;5.85;100.00;99613.09;4998570;28;121789;-75
2022/10/15 05:46:11;;;;;;;21.88;8.45;;;5.50;99.90;;;5.85;100.00;99607.72;4967907;28;121026;-74
2022/10/15 05:48:40;;;;;;;16.33;8.30;;;5.60;99.90;;;5.95;100.00;99613.03;4998053;28;130170;-74
2022/10/15 05:51:11;;;;;;;17.73;8.32;;;5.60;99.90;;;6.07;100.00;99621.59;5002197;28;129780;-74
2022/10/15 05:53:42;;;;;;;14.07;8.40;;;5.80;99.90;;;6.21;100.00;99621.00;4988259;28;118584;-74
2022/10/15 05:56:11;;;;;;;15.57;8.25;;;5.80;99.90;;;6.32;100.00;99617.16;5004944;28;118776;-74
2022/10/15 05:58:39;;;;;;;19.00;8.15;;;5.90;99.90;;;6.38;100.00;99626.81;5002419;28;130359;-74
2022/10/15 06:01:11;;;;;;;14.35;8.07;;;5.90;99.90;;;6.44;100.00;99620.31;5002815;28;129989;-74
2022/10/15 06:03:40;;;;;;;14.27;8.77;;;6.00;99.90;;;6.56;100.00;99613.72;5003190;28;119767;-75
2022/10/15 06:06:16;;;;;;;11.05;7.47;;;6.10;99.90;;;6.62;100.00;99620.69;5002680;28;119536;-75
2022/10/15 06:08:46;;;;;;;19.52;7.88;;;6.10;99.90;;;6.68;100.00;99619.56;5001141;28;130086;-74
2022/10/15 06:11:15;;;;;;;17.80;8.30;;;6.10;99.90;;;6.73;100.00;99629.50;4970910;28;128093;-75
2022/10/15 06:13:45;;;;;;;16.58;8.60;;;6.20;99.90;;;6.82;100.00;99625.94;5002710;28;119691;-75
2022/10/15 06:16:16;;;;;;;13.68;8.55;;;6.30;99.90;;;6.96;100.00;99642.25;5002683;28;119780;-74
2022/10/15 06:18:45;;;;;;;17.45;7.63;;;6.40;99.90;;;7.08;100.00;99627.59;4987666;28;128913;-74
2022/10/15 06:21:13;;;;;;;13.73;6.97;;;6.40;99.90;;;7.14;100.00;99632.66;4971034;28;128606;-74
2022/10/15 06:23:42;;;;;;;15.15;7.90;;;6.50;99.90;;;7.14;100.00;99632.66;5002603;28;119369;-72
2022/10/15 06:26:12;;;;;;;15.48;8.82;;;6.50;99.90;;;7.17;100.00;99642.88;4971280;28;118769;-73
2022/10/15 06:28:43;;;;;;;13.85;8.60;;;6.60;99.90;;;7.29;100.00;99644.38;5002389;28;129839;-73
2022/10/15 06:31:12;;;;;;;14.77;7.97;;;6.70;99.90;;;7.31;100.00;99643.00;5002373;28;129796;-74
2022/10/15 06:33:40;;;;;;;15.93;7.88;;;6.70;99.90;;;7.42;100.00;99638.31;4969636;28;121145;-74
2022/10/15 06:36:12;;;;;;;14.98;9.15;;;6.70;99.90;;;7.47;100.00;99643.66;4984498;28;122658;-75
2022/10/15 06:38:42;;;;;;;14.57;7.85;;;6.80;99.90;;;7.58;100.00;99640.84;5005090;28;129748;-75
2022/10/15 06:41:15;;;;;;;15.57;9.63;;;6.80;99.90;;;7.61;100.00;99642.97;4987685;28;128888;-76
2022/10/15 06:43:44;;;;;;;17.38;8.88;;;7.00;99.90;;;7.75;100.00;99641.16;5003085;28;119659;-75
2022/10/15 06:46:13;;;;;;;17.48;9.43;;;7.10;98.70;;;7.88;100.00;99645.06;5002777;28;119487;-76
2022/10/15 06:48:41;;;;;;;16.73;9.40;;;7.20;97.00;;;7.97;100.00;99645.22;5002290;28;130282;-72
2022/10/15 06:51:10;;;;;;;13.18;7.70;;;7.30;92.10;;;7.99;100.00;99651.13;5002387;28;129531;-76
2022/10/15 06:53:41;;;;;;;13.43;9.13;;;7.30;93.60;;;8.14;100.00;99648.22;4984228;28;120568;-77
2022/10/15 06:56:10;;;;;;;17.15;9.98;;;7.40;88.10;;;8.26;100.00;99651.31;4986749;28;119446;-75
2022/10/15 06:58:42;;;;;;;17.55;10.40;;;7.50;88.10;;;8.38;100.00;99648.19;4969128;28;129075;-75
2022/10/15 07:01:11;;;;;;;21.30;10.00;;;7.60;88.30;;;8.51;100.00;99652.06;4986111;28;129619;-73
2022/10/15 07:03:40;;;;;;;15.15;9.75;;;7.70;73.50;;;8.57;100.00;99645.47;5001823;28;119780;-77
2022/10/15 07:06:10;;;;;;;16.48;9.40;;;7.80;79.40;;;8.77;100.00;99654.34;5001804;28;119858;-74
2022/10/15 07:08:38;;;;;;;16.70;9.55;;;7.90;63.10;;;8.87;100.00;99646.09;5002227;28;130782;-73
2022/10/15 07:11:09;;;;;;;13.88;9.88;;;8.00;61.10;;;8.87;100.00;99654.19;4987265;28;128749;-73
2022/10/15 07:13:38;;;;;;;17.60;10.23;;;8.00;57.70;;;8.98;100.00;99652.91;4987515;28;118875;-74
2022/10/15 07:16:10;;;;;;;17.25;8.77;;;8.10;55.80;;;9.09;99.43;99655.47;5002623;28;119538;-76
2022/10/15 07:18:40;;;;;;;18.73;10.20;;;8.20;47.80;;;9.22;98.80;99654.66;5002226;28;130184;-74
2022/10/15 07:21:10;;;;;;;18.40;10.10;;;8.30;48.00;;;9.42;97.72;99658.13;4971818;28;127416;-73
2022/10/15 07:23:39;;;;;;;14.32;9.35;;;8.40;42.40;;;9.59;96.38;99655.63;5004798;28;121950;-76
2022/10/15 07:26:07;;;;;;;13.98;9.68;;;8.60;29.90;;;9.68;96.13;99661.94;5004586;28;121624;-75
2022/10/15 07:28:36;;;;;;;15.35;9.65;;;8.70;26.30;;;9.87;95.44;99671.88;4974845;28;128751;-76
2022/10/15 07:31:07;;;;;;;22.00;10.35;;;8.80;24.80;;;9.89;95.56;99669.66;5003303;28;128566;-76
2022/10/15 07:33:36;;;;;;;15.68;9.38;;;8.80;26.40;;;10.01;94.78;99671.88;4988469;28;118414;-75
2022/10/15 07:36:08;;;;;;;18.88;10.93;;;8.90;19.80;;;10.16;94.11;99676.16;5002348;28;119868;-76
2022/10/15 07:38:38;;;;;;;19.60;11.50;;;9.10;19.10;;;10.21;94.50;99679.56;4986812;28;129957;-75
2022/10/15 07:41:10;;;;;;;17.92;10.95;;;9.20;16.30;;;10.23;94.35;99673.84;4987686;28;128451;-74
2022/10/15 07:43:44;;;;;;;17.33;11.35;;;9.20;13.80;;;10.30;94.49;99665.28;5001741;28;120235;-74
2022/10/15 07:46:14;;;;;;;18.15;10.98;;;9.20;16.00;;;10.36;94.28;99675.75;4983604;28;119431;-73
2022/10/15 07:48:42;;;;;;;19.33;11.88;;;9.40;14.00;;;10.38;94.58;99668.09;4982826;28;131023;-76
2022/10/15 07:51:11;;;;;;;18.73;11.52;;;9.40;15.10;;;10.56;94.49;99673.66;5002600;28;129427;-76
2022/10/15 07:53:40;;;;;;;21.75;12.38;;;9.50;14.10;;;10.61;93.70;99670.81;5001619;28;119587;-74
2022/10/15 07:56:13;;;;;;;22.10;12.00;;;9.60;10.00;;;10.77;93.24;99669.38;5001201;28;119727;-73
2022/10/15 07:58:42;;;;;;;22.35;11.52;;;9.70;9.10;;;10.91;92.33;99668.50;4986105;28;129116;-75
2022/10/15 08:01:13;;;;;;;22.13;11.82;;;9.80;2.40;;;11.10;91.70;99671.81;5000656;28;129616;-74
2022/10/15 08:03:41;;;;;;;19.48;11.82;;;10.00;1.00;;;11.06;91.54;99662.66;5001422;28;120108;-73
2022/10/15 08:06:10;;;;;;;18.13;11.57;;;10.00;1.00;;;11.10;91.63;99663.66;4986402;28;118641;-73
2022/10/15 08:08:39;;;;;;;19.30;10.80;;;10.00;1.00;;;11.26;91.39;99663.28;4985502;28;130011;-74
2022/10/15 08:11:10;;;;;;;17.27;11.20;;;10.10;1.00;;;11.36;90.53;99673.88;5000765;28;129631;-75
2022/10/15 08:13:40;;;;;;;18.70;10.77;;;10.30;1.00;;;11.39;90.37;99656.13;4984390;28;121038;-73
2022/10/15 08:16:10;;;;;;;19.63;10.95;;;10.30;1.00;;;11.51;90.68;99669.94;4982910;28;121996;-75
2022/10/15 08:18:41;;;;;;;20.30;11.77;;;10.40;1.00;;;11.63;90.02;99666.63;4969365;28;129132;-75
2022/10/15 08:21:10;;;;;;;18.55;10.45;;;10.50;1.00;;;11.71;88.92;99668.56;5000494;28;129658;-75
2022/10/15 08:23:39;;;;;;;19.25;10.55;;;10.60;1.00;;;11.78;88.89;99673.53;5000636;28;119402;-74
2022/10/15 08:26:07;;;;;;;18.02;10.68;;;10.60;1.00;;;11.99;88.22;99673.81;4982806;28;119699;-77
2022/10/15 08:28:36;;;;;;;18.88;10.85;;;10.80;1.00;;;12.18;87.31;99674.31;4985501;28;130258;-75
2022/10/15 08:31:05;;;;;;;18.67;10.52;;;11.00;1.00;;;12.16;87.34;99668.41;5000627;28;129572;-75
2022/10/15 08:33:35;;;;;;;16.75;11.25;;;11.00;1.00;;;12.23;87.14;99674.19;5000626;28;120087;-74
2022/10/15 08:36:07;;;;;;;19.13;11.98;;;11.00;1.00;;;12.22;86.69;99677.22;5000763;28;119935;-73
2022/10/15 08:38:36;;;;;;;18.42;11.13;;;11.00;1.00;;;12.28;86.47;99669.69;4967821;28;129245;-75
2022/10/15 08:41:20;;;;;;;20.77;10.88;;;11.00;1.00;;;12.42;86.76;99670.34;4982291;28;129343;-75
2022/10/15 08:43:49;;;;;;;18.65;11.40;;;11.20;1.00;;;12.45;85.41;99675.16;4985711;28;118492;-75
2022/10/15 08:46:23;;;;;;;20.00;10.00;;;11.10;1.00;;;12.55;86.09;99674.84;5000855;28;119283;-76
2022/10/15 08:48:55;;;;;;;20.17;10.55;;;11.30;1.00;;;12.69;85.50;99669.22;4985308;28;128823;-75
2022/10/15 08:51:29;;;;;;;16.60;10.50;;;11.40;1.00;;;12.75;85.25;99675.31;5000613;28;130487;-74
2022/10/15 08:54:02;;;;;;;17.30;10.60;;;11.50;1.00;;;12.58;85.37;99673.41;4986266;28;103330;-76
2022/10/15 08:56:38;;;;;;;17.40;10.75;;;11.40;1.00;;;12.56;86.05;99676.44;5000596;28;119117;-74
2022/10/15 08:59:20;;;;;;;18.52;11.32;;;11.50;1.00;;;12.85;85.16;99674.97;4999862;28;130242;-76
2022/10/15 09:01:55;;;;;;;15.70;9.65;;;11.70;1.00;;;12.94;84.52;99667.59;4968694;28;129042;-76
2022/10/15 09:04:32;;;;;;;19.38;10.20;;;11.70;1.00;;;12.90;83.87;99669.38;4998897;28;122843;-76
2022/10/15 09:07:12;;;;;;;15.55;9.10;;;11.70;1.00;;;12.98;83.58;99669.66;5000320;28;122356;-76
2022/10/15 09:09:48;;;;;;;15.32;9.80;;;11.80;1.00;;;12.94;83.32;99669.53;5000275;28;130438;-76
2022/10/15 09:12:37;;;;;;;14.60;9.93;;;11.80;1.00;;;13.17;83.22;99661.94;4985172;28;128138;-74
2022/10/15 09:15:15;;;;;;;17.20;9.95;;;12.00;1.00;;;13.34;81.39;99665.75;5000329;28;119651;-74
2022/10/15 09:17:47;;;;;;;12.90;8.77;;;12.10;1.00;;;13.45;81.85;99661.56;4985332;28;118322;-73
2022/10/15 09:20:25;;;;;;;14.93;10.05;;;12.20;1.00;;;13.46;81.76;99658.53;4984840;28;128650;-74
2022/10/15 09:22:57;;;;;;;14.43;8.48;;;12.30;1.00;;;13.52;80.66;99672.75;4999707;28;129586;-74
2022/10/15 09:25:30;;;;;;;13.98;8.88;;;12.30;1.00;;;13.76;79.95;99664.00;4981109;28;120042;-74
2022/10/15 09:28:08;;;;;;;14.73;8.68;;;12.60;1.00;;;13.84;79.26;99665.09;4999878;28;119278;-76
2022/10/15 09:30:44;;;;;;;15.63;9.30;;;12.60;1.00;;;14.13;78.21;99666.19;4967166;28;129255;-73
2022/10/15 09:33:23;;;;;;;14.60;9.35;;;12.80;1.00;;;14.29;77.12;99666.38;5001385;28;129261;-73
2022/10/15 09:35:57;;;;;;;17.98;9.32;;;12.90;1.00;;;14.11;76.75;99661.06;5001333;28;119457;-74
2022/10/15 09:38:37;;;;;;;12.73;8.38;;;12.90;1.00;;;14.33;76.30;99668.13;4981927;28;119383;-74
2022/10/15 09:41:20;;;;;;;15.43;9.48;;;13.20;1.00;;;14.29;75.04;99660.94;4999274;28;129581;-75
2022/10/15 09:43:52;;;;;;;13.40;8.40;;;13.10;1.00;;;14.33;74.53;99659.16;4998709;28;129834;-77
2022/10/15 09:46:21;;;;;;;14.90;8.88;;;13.10;1.00;;;14.23;74.92;99651.34;4984902;28;118836;-73
2022/10/15 09:49:03;;;;;;;14.18;8.10;;;13.10;1.00;;;14.37;74.74;99662.81;4999849;28;119415;-75
2022/10/15 09:51:38;;;;;;;12.13;8.85;;;13.20;1.00;;;14.36;73.67;99653.81;4981428;28;130043;-73
2022/10/15 09:54:17;;;;;;;12.38;7.97;;;13.20;1.00;;;14.32;73.47;99639.25;4984683;28;129524;-75
2022/10/15 09:56:52;;;;;;;12.32;7.90;;;13.20;1.00;;;14.44;73.83;99656.81;4980532;28;122018;-75
2022/10/15 09:59:24;;;;;;;13.90;8.63;;;13.20;1.00;;;14.32;74.29;99649.34;4999976;28;123289;-75
2022/10/15 10:02:01;;;;;;;13.18;8.70;;;13.10;1.00;;;14.39;74.03;99661.34;4998927;28;130094;-75
2022/10/15 10:04:32;;;;;;;18.17;8.25;;;13.30;1.00;;;14.64;73.07;99656.03;4999158;28;129780;-76
2022/10/15 10:07:06;;;;;;;18.08;8.48;;;13.40;1.00;;;14.60;73.42;99646.91;4999437;28;119881;-74
2022/10/15 10:09:47;;;;;;;12.27;7.70;;;13.40;1.00;;;14.57;73.13;99651.09;4968236;28;118136;-74
2022/10/15 10:12:21;;;;;;;15.52;7.65;;;13.40;1.00;;;14.49;73.85;99656.59;4984305;28;129609;-75
2022/10/15 10:14:57;;;;;;;14.52;8.35;;;13.30;1.00;;;14.86;73.68;99657.59;5001411;28;128710;-75
2022/10/15 10:17:28;;;;;;;12.07;7.78;;;13.70;1.00;;;14.81;72.87;99660.53;4985145;28;119438;-74
2022/10/15 10:20:18;;;;;;;16.27;8.32;;;13.60;1.00;;;15.19;71.78;99654.06;4981865;28;119583;-73
2022/10/15 10:22:49;;;;;;;13.18;8.52;;;13.80;1.00;;;15.16;71.64;99642.97;4983977;28;129105;-76
2022/10/15 10:25:33;;;;;;;15.10;8.07;;;13.80;1.00;;;15.46;70.46;99660.03;4984355;28;128878;-73
2022/10/15 10:28:15;;;;;;;13.10;8.05;;;14.00;1.00;;;15.98;70.13;99653.09;4964792;28;118618;-75
2022/10/15 10:30:53;;;;;;;13.55;7.53;;;14.50;1.00;;;16.25;66.98;99642.53;4990942;28;119320;-75
2022/10/15 10:33:28;;;;;;;12.90;8.15;;;14.70;1.00;;;15.97;67.26;99648.75;4983991;28;129496;-75
2022/10/15 10:35:57;;;;;;;14.05;7.35;;;14.50;1.00;;;16.38;65.51;99648.78;4984367;28;128842;-76